Time;durP1;ratioP1;P1;durP2;ratioP2;P2;SDS_P1;SDS_P2;PMS_P1;PMS_P2;Temp;Humidity;BMP_temperature;BMP_pressure;BME280_temperature;BME280_humidity;BME280_pressure;Samples;Min_cycle;Max_cycle;Signal;HPM_P1;HPM_P2
2024/02/23 00:00:27;;;;;;;0.10;0.10;;;;;;;5.92;70.97;97512.94;7362940;19;20015;-64
2024/02/23 00:02:57;;;;;;;0.03;0.03;;;;;;;5.83;70.67;97482.38;7360197;19;20021;-63
2024/02/23 00:05:23;;;;;;;0.10;0.10;;;;;;;5.93;70.97;97504.28;7356798;19;20029;-63
2024/02/23 00:07:49;;;;;;;0.10;0.10;;;;;;;5.95;70.97;97507.59;7363014;19;20035;-63
2024/02/23 00:10:14;;;;;;;0.10;0.10;;;;;;;5.95;70.64;97497.25;7359909;19;20045;-64
2024/02/23 00:12:40;;;;;;;0.10;0.10;;;;;;;5.97;70.62;97500.56;7363496;19;20014;-63
2024/02/23 00:15:07;;;;;;;0.10;0.10;;;;;;;5.96;70.72;97491.13;7364369;19;20014;-63
2024/02/23 00:17:32;;;;;;;0.00;0.00;;;;;;;5.97;70.91;97504.91;7358263;19;20039;-63
2024/02/23 00:19:58;;;;;;;0.05;0.05;;;;;;;5.96;70.44;97498.91;7364036;19;20090;-63
2024/02/23 00:22:25;;;;;;;0.00;0.00;;;;;;;5.94;70.81;97500.75;7360659;19;20011;-64
2024/02/23 00:24:51;;;;;;;0.10;0.10;;;;;;;5.94;70.62;97500.75;7352204;19;20082;-63
2024/02/23 00:27:16;;;;;;;0.10;0.10;;;;;;;5.93;71.00;97500.81;7361477;19;20018;-63
2024/02/23 00:29:42;;;;;;;0.00;0.00;;;;;;;5.92;71.02;97499.16;7363542;19;20011;-63
2024/02/23 00:32:07;;;;;;;0.05;0.05;;;;;;;5.90;70.96;97498.38;7357014;19;20026;-64
2024/02/23 00:34:32;;;;;;;0.08;0.08;;;;;;;5.87;70.91;97499.38;7355774;19;20014;-64
2024/02/23 00:36:58;;;;;;;0.03;0.03;;;;;;;5.85;70.98;97513.34;7354810;19;20015;-63
2024/02/23 00:39:23;;;;;;;0.00;0.00;;;;;;;5.84;70.84;97520.28;7365435;19;20430;-63
2024/02/23 00:41:49;;;;;;;0.00;0.00;;;;;;;5.81;70.67;97515.25;7366384;19;20006;-63
2024/02/23 00:44:14;;;;;;;0.00;0.00;;;;;;;5.78;70.51;97510.25;7359349;19;20018;-63
2024/02/23 00:46:40;;;;;;;0.00;0.00;;;;;;;5.66;70.90;97495.38;7361341;19;20918;-64
2024/02/23 00:49:06;;;;;;;0.10;0.10;;;;;;;5.75;71.06;97515.59;7368388;19;20428;-64
2024/02/23 00:51:31;;;;;;;0.10;0.10;;;;;;;5.73;70.74;97522.63;7358376;19;20014;-64
2024/02/23 00:53:57;;;;;;;0.10;0.10;;;;;;;5.71;70.59;97519.25;7368695;19;20002;-63
2024/02/23 00:56:23;;;;;;;0.10;0.10;;;;;;;5.69;70.70;97515.94;7365261;19;20029;-63
2024/02/23 00:58:48;;;;;;;0.00;0.00;;;;;;;5.67;70.83;97507.38;7367619;19;20114;-64
2024/02/23 01:01:13;;;;;;;0.10;0.10;;;;;;;5.66;70.85;97524.69;7369327;19;20034;-64
2024/02/23 01:03:39;;;;;;;0.10;0.10;;;;;;;5.66;70.69;97521.25;7367915;19;20752;-64
2024/02/23 01:06:04;;;;;;;0.05;0.05;;;;;;;5.53;71.10;97500.38;7363437;19;20010;-64
2024/02/23 01:08:31;;;;;;;0.10;0.10;;;;;;;5.56;71.05;97514.91;7369910;19;20006;-63
2024/02/23 01:10:56;;;;;;;0.03;0.03;;;;;;;5.59;70.99;97517.34;7368068;19;20459;-63
2024/02/23 01:13:22;;;;;;;0.10;0.10;;;;;;;5.58;70.87;97503.56;7370589;19;20007;-63
2024/02/23 01:15:47;;;;;;;0.10;0.10;;;;;;;5.58;71.15;97506.16;7368775;19;20021;-63
2024/02/23 01:18:14;;;;;;;0.10;0.10;;;;;;;5.51;70.97;97497.03;7368395;19;20015;-63
2024/02/23 01:20:39;;;;;;;0.10;0.10;;;;;;;5.55;71.21;97508.06;7364944;19;20024;-63
2024/02/23 01:23:05;;;;;;;0.10;0.10;;;;;;;5.37;70.97;97479.69;7371522;19;20025;-63
2024/02/23 01:25:30;;;;;;;0.00;0.00;;;;;;;5.51;70.79;97503.97;7366119;19;20021;-63
2024/02/23 01:27:56;;;;;;;0.10;0.10;;;;;;;5.50;71.17;97510.06;7367569;19;20514;-63
2024/02/23 01:30:21;;;;;;;0.10;0.10;;;;;;;5.50;71.27;97515.22;7369240;19;20020;-64
2024/02/23 01:32:46;;;;;;;0.00;0.00;;;;;;;5.49;71.67;97513.56;7367028;19;20018;-63
2024/02/23 01:35:12;;;;;;;0.00;0.00;;;;;;;5.47;71.44;97500.69;7362482;19;20006;-64
2024/02/23 01:37:37;;;;;;;0.10;0.10;;;;;;;5.52;71.51;97510.81;7365032;19;20724;-64
2024/02/23 01:40:03;;;;;;;0.10;0.10;;;;;;;5.30;71.96;97478.31;7365258;19;20003;-64
2024/02/23 01:42:29;;;;;;;0.00;0.00;;;;;;;5.40;72.17;97483.84;7368897;19;21001;-63
2024/02/23 01:44:57;;;;;;;0.03;0.03;;;;;;;5.55;71.74;97508.06;7366816;19;20011;-63
2024/02/23 01:47:28;;;;;;;0.10;0.10;;;;;;;5.61;71.80;97512.91;7367424;19;20010;-64
2024/02/23 01:49:55;;;;;;;0.00;0.00;;;;;;;5.60;72.08;97508.66;7363900;19;20038;-63
2024/02/23 01:52:21;;;;;;;0.10;0.10;;;;;;;5.63;71.59;97511.09;7365867;19;20094;-63
2024/02/23 01:54:46;;;;;;;0.10;0.10;;;;;;;5.65;71.88;97504.06;7367070;19;20090;-63
2024/02/23 01:57:13;;;;;;;0.00;0.00;;;;;;;5.67;71.77;97494.44;7368430;19;20010;-64
2024/02/23 01:59:39;;;;;;;0.03;0.03;;;;;;;5.70;72.07;97491.69;7368284;19;20038;-64
2024/02/23 02:02:05;;;;;;;0.08;0.08;;;;;;;5.70;71.69;97491.69;7368879;19;20018;-63
2024/02/23 02:04:30;;;;;;;0.10;0.10;;;;;;;5.71;71.96;97498.53;7366043;19;20011;-63
2024/02/23 02:06:58;;;;;;;0.00;0.00;;;;;;;5.73;72.09;97481.19;7363223;19;20014;-63
2024/02/23 02:09:23;;;;;;;;;;;;;;;5.75;71.50;97483.69;7368662;19;20370;-63
2024/02/23 02:11:49;;;;;;;0.10;0.10;;;;;;;5.72;71.40;97475.16;7367543;19;19911;-64
2024/02/23 02:14:15;;;;;;;0.10;0.10;;;;;;;5.71;71.44;97470.06;7367752;19;20015;-64
2024/02/23 02:16:41;;;;;;;0.00;0.00;;;;;;;5.70;71.41;97476.16;7367446;19;20011;-64
2024/02/23 02:19:06;;;;;;;0.10;0.10;;;;;;;5.68;71.62;97483.19;7366268;19;20025;-63
2024/02/23 02:21:33;;;;;;;0.00;0.00;;;;;;;5.66;71.97;97480.66;7365584;19;20006;-64
2024/02/23 02:23:58;;;;;;;0.10;0.10;;;;;;;5.65;71.82;97484.19;7363991;19;20965;-63
2024/02/23 02:26:24;;;;;;;0.10;0.10;;;;;;;5.66;71.70;97482.44;7367029;19;20030;-64
2024/02/23 02:28:49;;;;;;;0.00;0.00;;;;;;;5.65;71.65;97484.19;7361624;19;20022;-63
2024/02/23 02:31:15;;;;;;;0.03;0.03;;;;;;;5.66;72.17;97492.78;7365068;19;20043;-64
2024/02/23 02:33:41;;;;;;;0.03;0.03;;;;;;;5.45;72.07;97450.78;7365318;19;20018;-63
2024/02/23 02:36:06;;;;;;;0.10;0.10;;;;;;;5.56;71.77;97473.50;7367998;19;20035;-64
2024/02/23 02:38:35;;;;;;;0.10;0.10;;;;;;;5.64;72.06;97492.03;7368299;19;20007;-64
2024/02/23 02:41:00;;;;;;;0.15;0.15;;;;;;;5.63;71.87;97490.38;7365924;19;20023;-64
2024/02/23 02:43:27;;;;;;;0.10;0.10;;;;;;;5.62;71.79;97488.69;7367608;19;20025;-63
2024/02/23 02:45:52;;;;;;;0.00;0.00;;;;;;;5.61;71.71;97497.38;7360315;19;20018;-64
2024/02/23 02:48:18;;;;;;;0.10;0.10;;;;;;;5.59;71.95;97496.63;7362343;19;20019;-63
2024/02/23 02:50:44;;;;;;;0.10;0.10;;;;;;;5.59;71.56;97499.22;7362441;19;20023;-63
2024/02/23 02:53:10;;;;;;;0.03;0.03;;;;;;;5.55;72.15;97502.88;7368738;19;20634;-63
2024/02/23 02:55:42;;;;;;;0.10;0.10;;;;;;;5.56;71.68;97505.38;7363497;19;20030;-63
2024/02/23 02:58:07;;;;;;;0.10;0.10;;;;;;;5.54;71.93;97507.22;7360283;19;20014;-64
2024/02/23 03:00:33;;;;;;;0.00;0.00;;;;;;;5.56;71.86;97504.56;7365420;19;20039;-63
2024/02/23 03:02:58;;;;;;;0.10;0.10;;;;;;;5.54;71.89;97511.56;7362635;19;20011;-66
2024/02/23 03:05:24;;;;;;;0.08;0.08;;;;;;;5.54;72.26;97511.56;7363726;19;20006;-63
2024/02/23 03:07:49;;;;;;;0.00;0.00;;;;;;;5.54;72.36;97515.00;7366476;19;20014;-63
2024/02/23 03:10:15;;;;;;;0.10;0.10;;;;;;;5.55;72.55;97514.06;7366883;19;20010;-64
2024/02/23 03:12:41;;;;;;;0.03;0.03;;;;;;;5.52;72.49;97510.81;7365088;19;20021;-64
2024/02/23 03:15:07;;;;;;;0.05;0.05;;;;;;;5.55;71.97;97511.47;7366981;19;20370;-63
2024/02/23 03:17:32;;;;;;;0.00;0.00;;;;;;;5.55;72.07;97514.06;7364610;19;20006;-63
2024/02/23 03:19:58;;;;;;;0.10;0.10;;;;;;;5.56;72.05;97514.91;7362648;19;20011;-63
2024/02/23 03:22:24;;;;;;;0.10;0.10;;;;;;;5.51;72.35;97511.72;7360151;19;20019;-63
2024/02/23 03:24:49;;;;;;;0.10;0.10;;;;;;;5.58;72.30;97507.91;7356449;19;20010;-64
2024/02/23 03:27:15;;;;;;;0.10;0.10;;;;;;;5.57;72.34;97516.56;7366180;19;20375;-63
2024/02/23 03:29:40;;;;;;;0.10;0.10;;;;;;;5.57;72.15;97509.63;7363470;19;20011;-64
2024/02/23 03:32:06;;;;;;;0.10;0.10;;;;;;;5.59;71.98;97509.56;7363905;19;20413;-63
2024/02/23 03:34:31;;;;;;;0.10;0.10;;;;;;;5.57;72.12;97501.03;7358996;19;20053;-63
2024/02/23 03:36:58;;;;;;;0.10;0.10;;;;;;;5.43;71.94;97484.50;7356233;19;20014;-64
2024/02/23 03:39:24;;;;;;;0.10;0.10;;;;;;;5.57;72.10;97501.03;7366050;19;20596;-63
2024/02/23 03:41:49;;;;;;;0.10;0.10;;;;;;;5.55;71.87;97498.53;7361514;19;20013;-63
2024/02/23 03:44:14;;;;;;;0.10;0.10;;;;;;;5.56;72.24;97494.19;7361621;19;20017;-63
2024/02/23 03:46:40;;;;;;;0.00;0.00;;;;;;;5.56;71.78;97489.03;7363450;19;20010;-63
2024/02/23 03:49:05;;;;;;;0.00;0.00;;;;;;;5.55;72.23;97485.59;7363152;19;20011;-63
2024/02/23 03:51:32;;;;;;;0.00;0.00;;;;;;;5.54;71.90;97488.28;7356790;19;20043;-64
2024/02/23 03:53:58;;;;;;;0.10;0.10;;;;;;;5.54;71.91;97494.28;7363930;19;20015;-63
2024/02/23 03:56:23;;;;;;;0.10;0.10;;;;;;;5.53;72.09;97495.22;7365205;19;20022;-63
2024/02/23 03:58:49;;;;;;;0.10;0.10;;;;;;;5.52;72.02;97492.69;7364480;19;20002;-64
2024/02/23 04:01:14;;;;;;;0.10;0.10;;;;;;;5.51;72.05;97496.19;7361559;19;20014;-64
2024/02/23 04:03:40;;;;;;;0.10;0.10;;;;;;;5.51;71.77;97519.50;7361542;19;20009;-64
2024/02/23 04:06:06;;;;;;;0.10;0.10;;;;;;;5.45;72.06;97493.03;7362347;19;20014;-63
2024/02/23 04:08:32;;;;;;;0.10;0.10;;;;;;;5.42;71.91;97487.16;7363709;19;20014;-65
2024/02/23 04:10:57;;;;;;;0.10;0.10;;;;;;;5.43;71.75;97497.47;7365050;19;20489;-63
2024/02/23 04:13:23;;;;;;;0.10;0.10;;;;;;;5.40;72.09;97505.38;7364238;19;20029;-64
2024/02/23 04:15:48;;;;;;;0.10;0.10;;;;;;;5.39;72.03;97498.53;7341068;19;20090;-63
2024/02/23 04:18:14;;;;;;;0.10;0.10;;;;;;;5.37;72.06;97500.38;7371136;19;20011;-64
2024/02/23 04:20:39;;;;;;;0.10;0.10;;;;;;;5.28;71.55;97480.16;7370476;19;20017;-63
2024/02/23 04:23:04;;;;;;;0.10;0.10;;;;;;;5.33;72.00;97514.38;7373059;19;20014;-63
2024/02/23 04:25:30;;;;;;;0.00;0.00;;;;;;;5.31;71.83;97520.53;7361274;19;20010;-63
2024/02/23 04:27:55;;;;;;;0.10;0.10;;;;;;;5.28;71.60;97503.44;7370767;19;20011;-64
2024/02/23 04:30:21;;;;;;;0.00;0.00;;;;;;;5.28;71.61;97500.03;7372710;19;20010;-63
2024/02/23 04:32:46;;;;;;;0.10;0.10;;;;;;;5.25;71.77;97495.81;7361359;19;20007;-63
2024/02/23 04:35:11;;;;;;;0.10;0.10;;;;;;;5.21;71.60;97499.47;7372835;19;20407;-64
2024/02/23 04:37:37;;;;;;;0.10;0.10;;;;;;;5.20;72.16;97488.31;7369779;19;20037;-63
2024/02/23 04:40:05;;;;;;;0.10;0.10;;;;;;;5.18;72.21;97486.72;7371761;19;20434;-63
2024/02/23 04:42:31;;;;;;;0.10;0.10;;;;;;;5.16;71.81;97493.72;7365055;19;20009;-63
2024/02/23 04:44:56;;;;;;;0.00;0.00;;;;;;;4.99;71.71;97461.00;7369896;19;20018;-63
2024/02/23 04:47:22;;;;;;;0.10;0.10;;;;;;;5.13;71.90;97486.97;7368332;19;20013;-63
2024/02/23 04:49:47;;;;;;;0.10;0.10;;;;;;;5.12;71.92;97492.19;7371211;19;20506;-66
2024/02/23 04:52:12;;;;;;;0.00;0.00;;;;;;;5.10;72.40;97486.28;7368716;19;20613;-64
2024/02/23 04:54:38;;;;;;;0.00;0.00;;;;;;;5.09;71.90;97484.63;7372097;19;20010;-63
2024/02/23 04:57:04;;;;;;;0.00;0.00;;;;;;;5.08;72.20;97493.31;7366388;19;20007;-64
2024/02/23 04:59:31;;;;;;;0.00;0.00;;;;;;;4.98;71.73;97484.34;7369278;19;20018;-64
2024/02/23 05:01:57;;;;;;;0.05;0.05;;;;;;;5.06;72.18;97495.09;7372673;19;20466;-63
2024/02/23 05:04:22;;;;;;;0.00;0.00;;;;;;;5.05;72.06;97498.63;7370450;19;20006;-63
2024/02/23 05:06:47;;;;;;;0.10;0.10;;;;;;;5.04;72.11;97507.28;7364234;19;20006;-63
2024/02/23 05:09:13;;;;;;;0.00;0.00;;;;;;;5.00;71.94;97510.94;7369067;19;20045;-63
2024/02/23 05:11:38;;;;;;;0.08;0.08;;;;;;;5.00;72.33;97522.13;7370134;19;20371;-64
2024/02/23 05:14:04;;;;;;;0.05;0.05;;;;;;;5.00;71.95;97522.13;7370109;19;20010;-63
2024/02/23 05:16:30;;;;;;;0.10;0.10;;;;;;;4.95;72.39;97506.00;7370518;19;20070;-63
2024/02/23 05:18:55;;;;;;;0.10;0.10;;;;;;;4.98;72.37;97511.03;7367688;19;20399;-64
2024/02/23 05:21:20;;;;;;;0.10;0.10;;;;;;;4.98;72.25;97510.19;7365472;19;20026;-63
2024/02/23 05:23:48;;;;;;;0.05;0.05;;;;;;;4.95;72.26;97511.19;7366814;19;20418;-64
2024/02/23 05:26:14;;;;;;;0.00;0.00;;;;;;;4.94;72.33;97502.59;7364906;19;20006;-63
2024/02/23 05:28:39;;;;;;;0.10;0.10;;;;;;;4.93;72.66;97503.50;7369667;19;20011;-64
2024/02/23 05:31:05;;;;;;;0.08;0.08;;;;;;;4.92;72.58;97499.25;7370262;19;20018;-63
2024/02/23 05:33:30;;;;;;;0.10;0.10;;;;;;;4.92;72.49;97503.59;7370371;19;20887;-64
2024/02/23 05:35:55;;;;;;;0.10;0.10;;;;;;;4.90;72.24;97510.56;7360114;19;20485;-63
2024/02/23 05:38:21;;;;;;;0.10;0.10;;;;;;;4.84;72.51;97511.72;7368910;19;20082;-63
2024/02/23 05:40:48;;;;;;;0.00;0.00;;;;;;;4.88;72.26;97526.19;7364041;19;20022;-64
2024/02/23 05:43:14;;;;;;;0.10;0.10;;;;;;;4.87;72.16;97527.09;7369130;19;20024;-63
2024/02/23 05:45:39;;;;;;;0.10;0.10;;;;;;;4.81;72.80;97527.38;7367951;19;21039;-63
2024/02/23 05:48:05;;;;;;;0.03;0.03;;;;;;;4.86;72.43;97540.06;7368469;19;20015;-64
2024/02/23 05:50:31;;;;;;;0.10;0.10;;;;;;;4.84;72.36;97542.75;7364899;19;20462;-63
2024/02/23 05:52:58;;;;;;;0.00;0.00;;;;;;;4.81;72.29;97537.72;7368571;19;20010;-63
2024/02/23 05:55:24;;;;;;;0.10;0.10;;;;;;;4.79;72.39;97534.38;7366308;19;21864;-64
2024/02/23 05:57:50;;;;;;;0.10;0.10;;;;;;;4.82;72.26;97548.94;7369121;19;20010;-64
2024/02/23 06:00:18;;;;;;;0.05;0.05;;;;;;;4.80;72.47;97548.16;7362455;19;20066;-63
2024/02/23 06:02:44;;;;;;;0.10;0.10;;;;;;;4.78;72.58;97558.56;7370393;19;20013;-63
2024/02/23 06:05:10;;;;;;;0.08;0.08;;;;;;;4.78;72.26;97562.91;7365670;19;20011;-63
2024/02/23 06:07:36;;;;;;;0.10;0.10;;;;;;;4.76;72.67;97560.38;7369697;19;20010;-63
2024/02/23 06:10:02;;;;;;;0.10;0.10;;;;;;;4.76;72.55;97564.72;7363386;19;20018;-63
2024/02/23 06:12:27;;;;;;;0.10;0.10;;;;;;;4.75;72.65;97568.22;7366876;19;20014;-63
2024/02/23 06:14:53;;;;;;;0.00;0.00;;;;;;;4.72;72.49;97573.56;7367630;19;20019;-63
2024/02/23 06:17:18;;;;;;;0.10;0.10;;;;;;;4.68;72.82;97572.88;7365699;19;20070;-63
2024/02/23 06:19:44;;;;;;;0.10;0.10;;;;;;;4.56;72.66;97555.34;7365075;19;20021;-64
2024/02/23 06:22:13;;;;;;;0.10;0.10;;;;;;;4.68;72.67;97572.88;7362584;19;20013;-63
2024/02/23 06:24:39;;;;;;;0.00;0.00;;;;;;;4.64;72.97;97571.34;7367647;19;20018;-63
2024/02/23 06:27:04;;;;;;;0.00;0.00;;;;;;;4.64;73.00;97572.16;7364098;19;20440;-63
2024/02/23 06:29:30;;;;;;;0.00;0.00;;;;;;;4.64;72.88;97573.91;7367491;19;20482;-63
2024/02/23 06:31:55;;;;;;;0.10;0.10;;;;;;;4.59;72.69;97568.13;7362648;19;20014;-63
2024/02/23 06:34:21;;;;;;;0.00;0.00;;;;;;;4.62;72.89;97570.59;7369786;19;20077;-63
2024/02/23 06:36:46;;;;;;;0.10;0.10;;;;;;;4.60;72.88;97570.63;7366359;19;20097;-63
2024/02/23 06:39:12;;;;;;;0.00;0.00;;;;;;;4.56;72.55;97573.44;7365869;19;20014;-63
2024/02/23 06:41:40;;;;;;;0.00;0.00;;;;;;;4.59;73.08;97568.97;7359885;19;20002;-63
2024/02/23 06:44:06;;;;;;;0.00;0.00;;;;;;;4.57;73.09;97569.97;7364240;19;20102;-63
2024/02/23 06:46:31;;;;;;;0.10;0.10;;;;;;;4.56;73.12;97568.28;7365845;19;22118;-63
2024/02/23 06:48:56;;;;;;;0.10;0.10;;;;;;;4.56;72.93;97578.59;7365485;19;20003;-63
2024/02/23 06:51:22;;;;;;;0.00;0.00;;;;;;;4.54;72.96;97573.53;7365783;19;20002;-63
2024/02/23 06:53:47;;;;;;;0.03;0.03;;;;;;;4.54;72.72;97570.09;7364667;19;20894;-63
2024/02/23 06:56:13;;;;;;;0.00;0.00;;;;;;;4.52;73.12;97577.13;7359800;19;20026;-63
2024/02/23 06:58:39;;;;;;;0.10;0.10;;;;;;;4.52;73.00;97577.13;7362811;19;20010;-63
2024/02/23 07:01:05;;;;;;;0.10;0.10;;;;;;;4.51;72.99;97581.44;7363586;19;20082;-63
2024/02/23 07:03:31;;;;;;;0.00;0.00;;;;;;;4.50;72.89;97578.91;7367713;19;20018;-63
2024/02/23 07:05:57;;;;;;;0.00;0.00;;;;;;;4.49;72.71;97587.59;7365391;19;20046;-63
2024/02/23 07:08:22;;;;;;;0.00;0.00;;;;;;;4.50;73.00;97579.75;7366122;19;20757;-63
2024/02/23 07:10:48;;;;;;;0.10;0.10;;;;;;;4.50;72.59;97578.91;7358550;19;20019;-63
2024/02/23 07:13:13;;;;;;;0.00;0.00;;;;;;;4.50;72.68;97578.91;7364868;19;21360;-63
2024/02/23 07:15:39;;;;;;;0.10;0.10;;;;;;;4.48;73.08;97585.91;7362606;19;20060;-63
2024/02/23 07:18:05;;;;;;;0.00;0.00;;;;;;;4.41;73.16;97570.72;7366864;19;20488;-64
2024/02/23 07:20:30;;;;;;;0.08;0.08;;;;;;;4.40;73.09;97584.50;7357367;19;20006;-62
2024/02/23 07:22:56;;;;;;;0.00;0.00;;;;;;;4.47;73.21;97599.75;7362944;19;20050;-63
2024/02/23 07:25:21;;;;;;;0.00;0.00;;;;;;;4.48;72.80;97604.00;7361463;19;20006;-63
2024/02/23 07:27:50;;;;;;;0.10;0.10;;;;;;;4.47;73.30;97600.59;7365893;19;21112;-63
2024/02/23 07:30:18;;;;;;;0.10;0.10;;;;;;;4.44;73.34;97595.56;7363587;19;20029;-63
2024/02/23 07:32:46;;;;;;;0.08;0.08;;;;;;;4.48;73.55;97616.91;7358113;19;20023;-63
2024/02/23 07:35:11;;;;;;;0.10;0.10;;;;;;;4.45;73.13;97597.22;7365122;19;20045;-63
2024/02/23 07:37:37;;;;;;;0.10;0.10;;;;;;;4.47;73.22;97616.09;7364023;19;20011;-63
2024/02/23 07:40:04;;;;;;;0.10;0.10;;;;;;;4.48;73.48;97622.09;7361560;19;20019;-63
2024/02/23 07:42:30;;;;;;;0.00;0.00;;;;;;;4.34;73.26;97607.22;7365039;19;20102;-63
2024/02/23 07:44:56;;;;;;;0.00;0.00;;;;;;;4.48;73.33;97622.91;7362499;19;20521;-63
2024/02/23 07:47:21;;;;;;;0.10;0.10;;;;;;;4.48;73.28;97632.41;7357235;19;20754;-63
2024/02/23 07:49:47;;;;;;;0.10;0.10;;;;;;;4.48;73.22;97627.25;7361058;19;20016;-62
2024/02/23 07:52:12;;;;;;;0.10;0.10;;;;;;;4.47;73.22;97625.59;7362431;19;20010;-63
2024/02/23 07:54:37;;;;;;;0.00;0.00;;;;;;;4.49;73.60;97629.75;7362569;19;20023;-63
2024/02/23 07:57:04;;;;;;;0.00;0.00;;;;;;;4.48;73.69;97628.09;7360587;19;20033;-63
2024/02/23 07:59:30;;;;;;;0.00;0.00;;;;;;;4.50;73.33;97635.75;7361045;19;20029;-62
2024/02/23 08:01:55;;;;;;;0.10;0.10;;;;;;;4.51;73.20;97632.25;7361989;19;20022;-63
2024/02/23 08:04:21;;;;;;;0.10;0.10;;;;;;;4.49;73.37;97639.25;7358510;19;20011;-64
2024/02/23 08:06:46;;;;;;;0.00;0.00;;;;;;;4.52;73.34;97639.13;7357327;19;20031;-63
2024/02/23 08:09:12;;;;;;;0.00;0.00;;;;;;;4.53;73.49;97641.63;7360011;19;20074;-63
2024/02/23 08:11:37;;;;;;;0.00;0.00;;;;;;;4.53;73.83;97651.97;7359981;19;20088;-63
2024/02/23 08:14:03;;;;;;;0.10;0.10;;;;;;;4.55;73.59;97657.03;7360036;19;20017;-63
2024/02/23 08:16:28;;;;;;;0.00;0.00;;;;;;;4.58;73.55;97662.09;7361266;19;20025;-63
2024/02/23 08:18:54;;;;;;;0.10;0.10;;;;;;;4.59;73.75;97661.16;7363428;19;20007;-63
2024/02/23 08:21:20;;;;;;;0.10;0.10;;;;;;;4.60;73.30;97663.66;7361636;19;20086;-63
2024/02/23 08:23:45;;;;;;;0.10;0.10;;;;;;;4.62;73.77;97661.03;7361715;19;20018;-63
2024/02/23 08:26:11;;;;;;;0.10;0.10;;;;;;;4.63;73.88;97663.53;7359471;19;20089;-63
2024/02/23 08:28:36;;;;;;;0.10;0.10;;;;;;;4.67;73.28;97670.25;7365500;19;20006;-62
2024/02/23 08:31:01;;;;;;;0.10;0.10;;;;;;;4.69;73.47;97667.56;7357001;19;20396;-63
2024/02/23 08:33:27;;;;;;;0.10;0.10;;;;;;;4.72;73.53;97677.78;7357828;19;20018;-63
2024/02/23 08:35:52;;;;;;;0.10;0.10;;;;;;;4.75;73.77;97676.78;7359801;19;20381;-63
2024/02/23 08:38:18;;;;;;;0.10;0.10;;;;;;;4.78;73.56;97672.31;7361694;19;20098;-62
2024/02/23 08:40:45;;;;;;;0.08;0.08;;;;;;;4.84;73.73;97677.19;7347641;19;20094;-64
2024/02/23 08:43:10;;;;;;;0.10;0.10;;;;;;;4.86;73.48;97671.94;7356960;19;20019;-63
2024/02/23 08:45:36;;;;;;;0.10;0.10;;;;;;;4.89;73.79;97680.38;7325764;19;20953;-63
2024/02/23 08:48:02;;;;;;;0.00;0.00;;;;;;;4.78;73.36;97649.06;7355752;19;20015;-62
2024/02/23 08:50:28;;;;;;;0.10;0.10;;;;;;;4.96;73.55;97680.91;7364452;19;20011;-63
2024/02/23 08:52:54;;;;;;;0.10;0.10;;;;;;;4.99;73.46;97674.78;7363051;19;20028;-62
2024/02/23 08:55:19;;;;;;;0.10;0.10;;;;;;;5.02;73.76;97679.78;7363629;19;20023;-63
2024/02/23 08:57:45;;;;;;;0.00;0.00;;;;;;;5.03;73.76;97686.66;7354520;19;20022;-63
2024/02/23 09:00:11;;;;;;;0.10;0.10;;;;;;;5.07;73.89;97689.03;7368368;19;20008;-63
2024/02/23 09:02:37;;;;;;;0.00;0.00;;;;;;;5.11;73.97;97694.84;7372510;19;20046;-66
2024/02/23 09:05:04;;;;;;;0.00;0.00;;;;;;;5.15;73.83;97696.38;7371077;19;20003;-64
2024/02/23 09:07:30;;;;;;;0.10;0.10;;;;;;;5.17;73.88;97694.56;7371438;19;20014;-65
2024/02/23 09:09:56;;;;;;;0.00;0.00;;;;;;;5.21;73.73;97696.06;7370339;19;20013;-63
2024/02/23 09:12:21;;;;;;;0.00;0.00;;;;;;;5.19;73.35;97687.56;7369887;19;20022;-63
2024/02/23 09:14:47;;;;;;;0.00;0.00;;;;;;;5.27;73.72;97697.53;7368065;19;20010;-63
2024/02/23 09:17:13;;;;;;;0.00;0.00;;;;;;;5.18;73.54;97685.91;7370838;19;20010;-63
2024/02/23 09:19:38;;;;;;;0.10;0.10;;;;;;;5.28;73.35;97687.13;7371317;19;20038;-62
2024/02/23 09:22:04;;;;;;;0.00;0.00;;;;;;;5.36;73.73;97694.50;7370637;19;20014;-63
2024/02/23 09:24:30;;;;;;;0.10;0.10;;;;;;;5.39;73.80;97700.34;7366663;19;20018;-63
2024/02/23 09:26:55;;;;;;;0.10;0.10;;;;;;;5.36;73.79;97690.16;7361057;19;21142;-63
2024/02/23 09:29:21;;;;;;;0.00;0.00;;;;;;;5.45;73.83;97696.63;7370665;19;20609;-63
2024/02/23 09:31:47;;;;;;;0.10;0.10;;;;;;;5.47;73.28;97697.38;7361557;19;20010;-63
2024/02/23 09:34:13;;;;;;;0.10;0.10;;;;;;;5.49;73.73;97697.31;7370041;19;20525;-63
2024/02/23 09:36:38;;;;;;;0.00;0.00;;;;;;;5.51;73.29;97692.88;7370669;19;20011;-63
2024/02/23 09:39:04;;;;;;;0.10;0.10;;;;;;;5.53;73.28;97693.66;7368581;19;20398;-63
2024/02/23 09:41:30;;;;;;;0.10;0.10;;;;;;;5.54;73.27;97697.91;7370064;19;20006;-63
2024/02/23 09:43:58;;;;;;;0.00;0.00;;;;;;;5.57;73.60;97706.34;7366019;19;20493;-63
2024/02/23 09:46:25;;;;;;;0.10;0.10;;;;;;;5.62;73.47;97708.72;7366042;19;20047;-64
2024/02/23 09:48:51;;;;;;;0.10;0.10;;;;;;;5.65;73.40;97700.78;7363749;19;20898;-63
2024/02/23 09:51:17;;;;;;;0.10;0.10;;;;;;;5.69;73.52;97710.09;7370277;19;20077;-63
2024/02/23 09:53:43;;;;;;;0.10;0.10;;;;;;;5.76;74.07;97708.84;7361993;19;20288;-67
2024/02/23 09:56:09;;;;;;;0.00;0.00;;;;;;;5.90;74.28;97706.38;7369034;19;20015;-63
2024/02/23 09:58:41;;;;;;;0.10;0.10;;;;;;;6.09;74.66;97711.50;7364039;19;20520;-63
2024/02/23 10:01:06;;;;;;;0.10;0.10;;;;;;;6.28;74.47;97713.94;7366883;19;20022;-63
2024/02/23 10:03:32;;;;;;;0.10;0.10;;;;;;;6.41;73.83;97711.53;7364663;19;20916;-63
2024/02/23 10:05:58;;;;;;;0.10;0.10;;;;;;;6.51;73.66;97712.72;7369611;19;20017;-63
2024/02/23 10:08:23;;;;;;;0.10;0.10;;;;;;;6.61;73.49;97713.03;7366105;19;20425;-63
2024/02/23 10:10:50;;;;;;;0.00;0.00;;;;;;;6.71;73.65;97714.22;7366470;19;20670;-63
2024/02/23 10:13:24;;;;;;;0.10;0.10;;;;;;;6.79;73.23;97706.00;7365348;19;20376;-63
2024/02/23 10:15:51;;;;;;;0.10;0.10;;;;;;;6.84;73.09;97719.56;7368100;19;20074;-62
2024/02/23 10:18:17;;;;;;;0.10;0.10;;;;;;;6.95;72.93;97728.44;7368047;19;20497;-63
2024/02/23 10:20:43;;;;;;;0.00;0.00;;;;;;;6.90;72.98;97709.69;7368848;19;20573;-63
2024/02/23 10:23:09;;;;;;;0.00;0.00;;;;;;;6.93;72.67;97712.09;7366771;19;20126;-63
2024/02/23 10:25:35;;;;;;;0.00;0.00;;;;;;;7.10;72.57;97741.47;7361513;19;20014;-63
2024/02/23 10:28:05;;;;;;;0.00;0.00;;;;;;;7.15;72.82;97742.06;7366262;19;20017;-62
2024/02/23 10:30:30;;;;;;;0.10;0.10;;;;;;;7.15;72.36;97737.69;7367800;19;20015;-63
2024/02/23 10:32:57;;;;;;;0.10;0.10;;;;;;;7.16;72.40;97741.13;7367666;19;20021;-63
2024/02/23 10:35:24;;;;;;;0.07;0.07;;;;;;;7.16;72.00;97741.13;7365497;19;20051;-63
2024/02/23 10:37:51;;;;;;;0.10;0.10;;;;;;;7.15;71.93;97742.88;7364349;19;20010;-63
2024/02/23 10:40:19;;;;;;;0.00;0.00;;;;;;;7.17;72.17;97742.78;7365023;19;20052;-63
2024/02/23 10:42:51;;;;;;;;;;;;;;;7.21;72.60;97744.31;7364920;19;20006;-63
2024/02/23 10:45:21;;;;;;;0.10;0.10;;;;;;;7.16;71.77;97751.50;7365427;19;19938;-63
2024/02/23 10:47:51;;;;;;;0.00;0.00;;;;;;;7.17;71.66;97753.19;7364794;19;20018;-63
2024/02/23 10:50:19;;;;;;;0.10;0.10;;;;;;;7.09;72.03;97732.00;7364715;19;20106;-66
2024/02/23 10:52:45;;;;;;;0.10;0.10;;;;;;;7.16;72.49;97746.31;7369135;19;20366;-63
2024/02/23 10:55:10;;;;;;;0.10;0.10;;;;;;;7.25;72.07;97751.00;7362104;19;20014;-63
2024/02/23 10:57:36;;;;;;;0.10;0.10;;;;;;;7.32;72.34;97752.31;7360861;19;20069;-63
2024/02/23 11:00:09;;;;;;;0.03;0.03;;;;;;;7.40;72.22;97755.31;7360668;19;20011;-65
2024/02/23 11:02:39;;;;;;;0.00;0.00;;;;;;;7.45;71.91;97758.50;7367808;19;20450;-63
2024/02/23 11:05:09;;;;;;;0.10;0.10;;;;;;;7.46;72.11;97757.56;7363698;19;20486;-63
2024/02/23 11:07:38;;;;;;;0.10;0.10;;;;;;;7.53;72.04;97758.03;7367882;19;20140;-63
2024/02/23 11:10:05;;;;;;;0.00;0.00;;;;;;;7.60;71.91;97763.69;7364845;19;20018;-63
2024/02/23 11:12:30;;;;;;;0.03;0.03;;;;;;;7.61;71.76;97761.03;7367253;19;20442;-63
2024/02/23 11:14:58;;;;;;;0.10;0.10;;;;;;;7.60;71.09;97761.94;7363690;19;20565;-63
2024/02/23 11:17:26;;;;;;;0.00;0.00;;;;;;;7.65;71.20;97767.69;7368401;19;20010;-63
2024/02/23 11:19:54;;;;;;;0.10;0.10;;;;;;;7.64;71.05;97767.81;7364880;19;20011;-63
2024/02/23 11:22:26;;;;;;;0.10;0.10;;;;;;;7.68;71.09;97771.91;7362251;19;20048;-63
2024/02/23 11:24:51;;;;;;;0.10;0.10;;;;;;;7.68;70.94;97779.69;7364416;19;20036;-64
2024/02/23 11:27:20;;;;;;;0.10;0.10;;;;;;;7.67;70.98;97773.66;7361904;19;20608;-63
2024/02/23 11:29:48;;;;;;;0.10;0.10;;;;;;;7.72;70.58;97781.19;7365447;19;20015;-63
2024/02/23 11:32:17;;;;;;;0.00;0.00;;;;;;;7.72;71.06;97773.41;7367000;19;20919;-63
2024/02/23 11:34:58;;;;;;;0.10;0.10;;;;;;;7.77;71.16;97784.34;7363927;19;20348;-63